Alburg Center, VT

7:35 PM EST on January 21, 2017 (GMT -0500)
MD9125 | | Change Station

Elev 118 ft 44.96 °N, 73.25 °W | Updated 7 minutes ago

Overcast
Overcast
37.0 °F
Feels Like 37 °F
N
0.0
Wind Variable Wind from SW
Gusts 0.0 mph

Today
High -- | Low -- °F
--% Chance of Precip.
Yesterday
High -- | Low -- °F
Precip. -- in
Pressure 29.79 in
Visibility 2.5 miles
Clouds Overcast 100 ft
Windchill 37 °F
Dew Point 34 °F
Humidity 90%
Rainfall 0.00 in
Snow Depth Not available.
7:23 AM 4:46 PM
Waning Crescent, 31% visible
METAR KFSO 220015Z AUTO 00000KT 2 1/2SM BR OVC001 02/02 A2979 RMK AO2 T00220022
Pressure 29.79 in
Visibility 2.5 miles
Clouds Overcast 100 ft
Windchill 37 °F
Dew Point 34 °F
Humidity 90%
Rainfall 0.00 in
Snow Depth Not available.
7:23 AM 4:46 PM
Waning Crescent, 31% visible
METAR KFSO 220015Z AUTO 00000KT 2 1/2SM BR OVC001 02/02 A2979 RMK AO2 T00220022

Get Your Daily Forecast Email!

Thanks for signing up!

Be on the lookout for a verification email in your inbox.

You'll start receiving the daily forecast at 8 AM.

×

10-Day Weather Forecast

Almanac

Astronomy

Jan. 21, 2017 Rise Set
Actual Time
Civil Twilight
Nautical Twilight
Astronomical Twilight
Moon
Length of Visible Light
Length of Day
Tomorrow will be .
, % of the Moon is Illuminated

Today's Extremes

State Highs State Lows

Community

WunderPhotos

Upload Photos

1,962,540 photos uploaded!

WunderBlog® & News

Nearby

Air Quality

  Air Quality AQ Index Pollutant
Not available.

Snow Depth

Station Depth Elevation

Earthquake Activity

City Distance Mag. Time & Date
Minimum magnitude displayed is 2.5.

Coastal Water Temperatures

Place Temperature

Stations

Nearby Weather Stations

Station Location Temp. Windchill Dew Point Humidity Wind Precip. Elev Updated Type
                   

Watches & Warnings

There are currently no watches in effect.